createdAt,value
2023-04-19T00:00:41.277Z,1026.68
2023-04-19T00:02:36.282Z,1026.68
2023-04-19T00:04:36.555Z,1026.85
2023-04-19T00:06:35.963Z,1026.85
2023-04-19T00:08:35.414Z,1026.81
2023-04-19T00:10:35.007Z,1026.81
2023-04-19T00:12:35.557Z,1026.69
2023-04-19T00:14:36.263Z,1026.69
2023-04-19T00:16:35.536Z,1026.69
2023-04-19T00:18:35.981Z,1026.69
2023-04-19T00:20:35.546Z,1026.61
2023-04-19T00:22:35.186Z,1026.61
2023-04-19T00:24:35.908Z,1026.66
2023-04-19T00:26:35.096Z,1026.66
2023-04-19T00:28:35.626Z,1026.59
2023-04-19T00:30:35.323Z,1026.59
2023-04-19T00:32:35.744Z,1026.61
2023-04-19T00:34:35.350Z,1026.61
2023-04-19T00:36:35.662Z,1026.6
2023-04-19T00:38:34.933Z,1026.6
2023-04-19T00:40:35.652Z,1026.57
2023-04-19T00:42:35.173Z,1026.57
2023-04-19T00:44:36.036Z,1026.51
2023-04-19T00:46:36.113Z,1026.51
2023-04-19T00:48:35.663Z,1026.55
2023-04-19T00:50:36.024Z,1026.55
2023-04-19T00:52:35.462Z,1026.47
2023-04-19T00:54:35.150Z,1026.47
2023-04-19T00:56:35.458Z,1026.51
2023-04-19T00:58:35.878Z,1026.5
2023-04-19T01:00:38.630Z,1026.5
2023-04-19T01:02:36.192Z,1026.44
2023-04-19T01:04:37.123Z,1026.44
2023-04-19T01:06:35.263Z,1026.41
2023-04-19T01:08:35.969Z,1026.41
2023-04-19T01:10:35.336Z,1026.49
2023-04-19T01:12:35.783Z,1026.49
2023-04-19T01:14:35.526Z,1026.5
2023-04-19T01:16:36.195Z,1026.5
2023-04-19T01:18:35.561Z,1026.39
2023-04-19T01:20:35.104Z,1026.39
2023-04-19T01:22:35.706Z,1026.34
2023-04-19T01:24:35.515Z,1026.34
2023-04-19T01:26:35.645Z,1026.47
2023-04-19T01:28:35.117Z,1026.47
2023-04-19T01:30:35.737Z,1026.29
2023-04-19T01:32:35.188Z,1026.29
2023-04-19T01:34:35.886Z,1026.28
2023-04-19T01:36:35.014Z,1026.28
2023-04-19T01:38:35.972Z,1026.36
2023-04-19T01:40:35.208Z,1026.36
2023-04-19T01:42:35.898Z,1026.31
2023-04-19T01:44:35.795Z,1026.31
2023-04-19T01:46:36.156Z,1026.28
2023-04-19T01:48:35.520Z,1026.28
2023-04-19T01:50:35.904Z,1026.31
2023-04-19T01:52:35.360Z,1026.31
2023-04-19T01:54:35.870Z,1026.33
2023-04-19T01:56:35.206Z,1026.33
2023-04-19T01:58:35.812Z,1026.18
2023-04-19T02:00:38.531Z,1026.18
2023-04-19T02:02:35.982Z,1026.21
2023-04-19T02:04:36.894Z,1026.21
2023-04-19T02:06:35.515Z,1026.17
2023-04-19T02:08:35.092Z,1026.17
2023-04-19T02:10:35.607Z,1026.23
2023-04-19T02:12:35.113Z,1026.23
2023-04-19T02:14:35.878Z,1026.22
2023-04-19T02:16:36.209Z,1026.22
2023-04-19T02:18:35.731Z,1026.31
2023-04-19T02:20:35.329Z,1026.31
2023-04-19T02:22:35.669Z,1026.34
2023-04-19T02:24:35.371Z,1026.34
2023-04-19T02:26:35.732Z,1026.17
2023-04-19T02:28:35.172Z,1026.17
2023-04-19T02:30:35.625Z,1026.21
2023-04-19T02:32:35.495Z,1026.21
2023-04-19T02:34:36.457Z,1026.3
2023-04-19T02:36:35.381Z,1026.3
2023-04-19T02:38:34.974Z,1026.19
2023-04-19T02:40:35.792Z,1026.19
2023-04-19T02:42:35.331Z,1026.35
2023-04-19T02:44:36.247Z,1026.35
2023-04-19T02:46:35.471Z,1026.3
2023-04-19T02:48:35.934Z,1026.3
2023-04-19T02:50:35.293Z,1026.23
2023-04-19T02:52:35.890Z,1026.23
2023-04-19T02:54:35.579Z,1026.24
2023-04-19T02:56:35.840Z,1026.24
2023-04-19T02:58:35.310Z,1026.2
2023-04-19T03:00:41.032Z,1026.2
2023-04-19T03:02:35.981Z,1026.34
2023-04-19T03:04:36.010Z,1026.34
2023-04-19T03:06:35.113Z,1026.31
2023-04-19T03:08:35.724Z,1026.31
2023-04-19T03:10:35.452Z,1026.35
2023-04-19T03:12:35.932Z,1026.35
2023-04-19T03:14:35.657Z,1026.27
2023-04-19T03:16:36.082Z,1026.27
2023-04-19T03:18:35.380Z,1026.36
2023-04-19T03:20:35.080Z,1026.36
2023-04-19T03:22:35.746Z,1026.27
2023-04-19T03:24:37.806Z,1026.27
2023-04-19T03:26:35.870Z,1026.25
2023-04-19T03:28:35.371Z,1026.25
2023-04-19T03:30:35.939Z,1026.24
2023-04-19T03:32:35.439Z,1026.24
2023-04-19T03:34:36.201Z,1026.09
2023-04-19T03:36:35.356Z,1026.09
2023-04-19T03:38:35.736Z,1026.18
2023-04-19T03:40:35.420Z,1026.18
2023-04-19T03:42:38.854Z,1026.25
2023-04-19T03:44:35.359Z,1026.25
2023-04-19T03:46:35.938Z,1026.15
2023-04-19T03:48:37.027Z,1026.15
2023-04-19T03:50:35.669Z,1026.18
2023-04-19T03:52:35.186Z,1026.18
2023-04-19T03:54:36.132Z,1026.33
2023-04-19T03:56:35.388Z,1026.33
2023-04-19T03:58:35.894Z,1026.18
2023-04-19T04:00:39.958Z,1026.18
2023-04-19T04:02:36.231Z,1026.27
2023-04-19T04:04:40.016Z,1026.27
2023-04-19T04:06:35.710Z,1026.24
2023-04-19T04:08:35.296Z,1026.24
2023-04-19T04:10:35.984Z,1026.29
2023-04-19T04:12:35.317Z,1026.29
2023-04-19T04:14:35.848Z,1026.32
2023-04-19T04:16:35.531Z,1026.44
2023-04-19T04:18:35.786Z,1026.44
2023-04-19T04:20:35.331Z,1026.24
2023-04-19T04:22:35.740Z,1026.24
2023-04-19T04:24:35.325Z,1026.29
2023-04-19T04:26:35.799Z,1026.29
2023-04-19T04:28:35.298Z,1026.29
2023-04-19T04:30:39.147Z,1026.29
2023-04-19T04:32:35.904Z,1026.25
2023-04-19T04:34:36.198Z,1026.25
2023-04-19T04:36:35.531Z,1026.29
2023-04-19T04:38:47.641Z,1026.29
2023-04-19T04:40:35.440Z,1026.35
2023-04-19T04:42:35.866Z,1026.35
2023-04-19T04:44:38.393Z,1026.35
2023-04-19T04:46:35.457Z,1026.35
2023-04-19T04:48:35.649Z,1026.45
2023-04-19T04:50:35.225Z,1026.45
2023-04-19T04:52:35.576Z,1026.42
2023-04-19T04:54:36.224Z,1026.42
2023-04-19T04:56:35.656Z,1026.36
2023-04-19T04:58:35.207Z,1026.36
2023-04-19T05:00:35.788Z,1026.5
2023-04-19T05:02:36.288Z,1026.5
2023-04-19T05:04:35.862Z,1026.49
2023-04-19T05:06:35.885Z,1026.49
2023-04-19T05:08:35.409Z,1026.41
2023-04-19T05:10:35.909Z,1026.41
2023-04-19T05:12:35.324Z,1026.62
2023-04-19T05:14:36.470Z,1026.62
2023-04-19T05:16:35.703Z,1026.54
2023-04-19T05:18:36.076Z,1026.54
2023-04-19T05:20:35.674Z,1026.54
2023-04-19T05:22:35.279Z,1026.54
2023-04-19T05:24:35.516Z,1026.45
2023-04-19T05:26:35.443Z,1026.45
2023-04-19T05:28:35.761Z,1026.57
2023-04-19T05:30:35.301Z,1026.57
2023-04-19T05:32:35.703Z,1026.71
2023-04-19T05:34:35.594Z,1026.71
2023-04-19T05:36:35.662Z,1026.57
2023-04-19T05:38:34.951Z,1026.57
2023-04-19T05:40:35.545Z,1026.67
2023-04-19T05:42:35.968Z,1026.67
2023-04-19T05:44:35.614Z,1026.78
2023-04-19T05:46:36.220Z,1026.78
2023-04-19T05:48:35.484Z,1026.81
2023-04-19T05:50:36.108Z,1026.81
2023-04-19T05:52:35.435Z,1026.9
2023-04-19T05:54:36.055Z,1026.9
2023-04-19T05:56:35.307Z,1026.85
2023-04-19T05:58:35.646Z,1026.85
2023-04-19T06:00:40.158Z,1026.79
2023-04-19T06:02:36.214Z,1026.79
2023-04-19T06:04:37.333Z,1026.72
2023-04-19T06:06:36.433Z,1026.72
2023-04-19T06:10:53.184Z,1026.84
2023-04-19T06:14:35.942Z,1026.87
2023-04-19T06:16:35.427Z,1026.8
2023-04-19T06:18:42.340Z,1026.8
2023-04-19T06:20:35.939Z,1026.83
2023-04-19T06:22:35.557Z,1026.83
2023-04-19T06:24:36.217Z,1026.78
2023-04-19T06:26:35.512Z,1026.78
2023-04-19T06:28:36.015Z,1026.81
2023-04-19T06:30:35.796Z,1026.81
2023-04-19T06:32:35.411Z,1026.88
2023-04-19T06:34:35.592Z,1026.88
2023-04-19T06:36:35.212Z,1026.84
2023-04-19T06:38:35.786Z,1026.84
2023-04-19T06:40:35.498Z,1026.95
2023-04-19T06:42:35.781Z,1026.95
2023-04-19T06:44:35.246Z,1026.87
2023-04-19T06:46:36.792Z,1026.87
2023-04-19T06:48:35.803Z,1026.93
2023-04-19T06:50:35.296Z,1026.93
2023-04-19T06:52:35.673Z,1026.84
2023-04-19T06:54:36.004Z,1026.84
2023-04-19T06:56:35.459Z,1026.83
2023-04-19T06:58:35.958Z,1026.83
2023-04-19T07:00:39.339Z,1026.82
2023-04-19T07:02:35.784Z,1026.82
2023-04-19T07:04:36.081Z,1026.81
2023-04-19T07:06:35.671Z,1026.81
2023-04-19T07:08:49.442Z,1026.84
2023-04-19T07:10:35.932Z,1026.84
2023-04-19T07:12:35.262Z,1026.82
2023-04-19T07:14:35.736Z,1026.82
2023-04-19T07:16:36.338Z,1026.87
2023-04-19T07:18:35.680Z,1026.87
2023-04-19T07:20:35.182Z,1026.8
2023-04-19T07:22:37.714Z,1026.8
2023-04-19T07:24:35.163Z,1026.75
2023-04-19T07:26:35.586Z,1026.75
2023-04-19T07:28:36.058Z,1026.76
2023-04-19T07:30:35.569Z,1026.76
2023-04-19T07:32:35.636Z,1026.71
2023-04-19T07:34:35.855Z,1026.71
2023-04-19T07:36:35.564Z,1026.75
2023-04-19T07:38:35.766Z,1026.68
2023-04-19T07:40:35.511Z,1026.68
2023-04-19T07:42:35.044Z,1026.7
2023-04-19T07:44:35.532Z,1026.7
2023-04-19T07:46:35.402Z,1026.55
2023-04-19T07:48:35.769Z,1026.55
2023-04-19T07:50:35.085Z,1026.68
2023-04-19T07:52:35.971Z,1026.68
2023-04-19T07:54:35.411Z,1026.61
2023-04-19T07:56:35.915Z,1026.61
2023-04-19T07:58:35.294Z,1026.65
2023-04-19T08:00:39.467Z,1026.65
2023-04-19T08:02:35.720Z,1026.64
2023-04-19T08:04:38.728Z,1026.64
2023-04-19T08:06:35.322Z,1026.76
2023-04-19T08:08:36.000Z,1026.76
2023-04-19T08:10:35.665Z,1026.7
2023-04-19T08:13:15.484Z,1026.7
2023-04-19T08:15:52.194Z,1026.77
2023-04-19T08:18:35.831Z,1026.78
2023-04-19T08:20:35.501Z,1026.78
2023-04-19T08:24:35.620Z,1026.65
2023-04-19T08:26:35.990Z,1026.7
2023-04-19T08:28:35.303Z,1026.7
2023-04-19T08:30:35.907Z,1026.73
2023-04-19T08:32:35.788Z,1026.73
2023-04-19T08:34:35.956Z,1026.72
2023-04-19T08:37:00.053Z,1026.72
2023-04-19T08:38:37.097Z,1026.69
2023-04-19T08:42:48.260Z,1026.65
2023-04-19T08:51:16.949Z,1026.64
2023-04-19T08:52:47.949Z,1026.64
2023-04-19T08:56:50.536Z,1026.69
2023-04-19T08:59:20.750Z,1026.75
2023-04-19T09:00:38.705Z,1026.75
2023-04-19T09:05:02.031Z,1026.61
2023-04-19T09:08:36.910Z,1026.58
2023-04-19T09:10:38.027Z,1026.55
2023-04-19T09:12:35.661Z,1026.55
2023-04-19T09:14:35.843Z,1026.57
2023-04-19T09:16:35.887Z,1026.57
2023-04-19T09:18:39.943Z,1026.61
2023-04-19T09:22:35.077Z,1026.58
2023-04-19T09:25:39.228Z,1026.58
2023-04-19T09:34:35.040Z,1026.34
2023-04-19T09:36:37.261Z,1026.34
2023-04-19T09:40:35.853Z,1026.54
2023-04-19T09:43:45.181Z,1026.42
2023-04-19T09:45:32.518Z,1026.38
2023-04-19T09:48:35.986Z,1026.38
2023-04-19T09:52:35.939Z,1026.44
2023-04-19T09:56:37.849Z,1026.43
2023-04-19T10:00:49.951Z,1026.45
2023-04-19T10:05:27.680Z,1026.33
2023-04-19T10:08:36.163Z,1026.33
2023-04-19T10:10:59.125Z,1026.23
2023-04-19T10:14:35.549Z,1026.21
2023-04-19T10:20:35.125Z,1026.34
2023-04-19T10:22:35.638Z,1026.27
2023-04-19T10:24:35.049Z,1026.27
2023-04-19T10:26:35.504Z,1026.43
2023-04-19T10:28:35.959Z,1026.43
2023-04-19T10:30:35.654Z,1026.32
2023-04-19T10:32:36.398Z,1026.32
2023-04-19T10:34:35.449Z,1026.34
2023-04-19T10:36:35.033Z,1026.34
2023-04-19T10:38:35.758Z,1026.33
2023-04-19T10:40:35.328Z,1026.33
2023-04-19T10:42:35.723Z,1026.23
2023-04-19T10:44:35.200Z,1026.23
2023-04-19T10:46:36.507Z,1026.17
2023-04-19T10:48:35.700Z,1026.17
2023-04-19T10:50:36.113Z,1026.13
2023-04-19T10:52:35.478Z,1026.13
2023-04-19T10:54:34.978Z,1026.19
2023-04-19T10:56:35.860Z,1026.19
2023-04-19T10:58:35.029Z,1026.17
2023-04-19T11:00:38.832Z,1026.18
2023-04-19T11:02:37.006Z,1026.18
2023-04-19T11:04:36.296Z,1026.15
2023-04-19T11:06:36.007Z,1026.15
2023-04-19T11:08:35.451Z,1026.03
2023-04-19T11:10:35.537Z,1026.03
2023-04-19T11:12:35.614Z,1026.03
2023-04-19T11:14:35.052Z,1026.03
2023-04-19T11:16:56.086Z,1026.21
2023-04-19T11:18:46.870Z,1026.21
2023-04-19T11:20:35.642Z,1026.05
2023-04-19T11:22:35.056Z,1026.05
2023-04-19T11:24:35.663Z,1026
2023-04-19T11:26:35.114Z,1026
2023-04-19T11:28:35.918Z,1025.74
2023-04-19T11:30:35.127Z,1025.74
2023-04-19T11:32:35.734Z,1025.93
2023-04-19T11:34:35.297Z,1025.93
2023-04-19T11:36:35.677Z,1025.71
2023-04-19T11:38:35.193Z,1025.71
2023-04-19T11:40:38.846Z,1025.78
2023-04-19T11:42:34.918Z,1025.78
2023-04-19T11:44:35.467Z,1025.75
2023-04-19T11:48:35.385Z,1025.67
2023-04-19T11:50:35.695Z,1025.67
2023-04-19T11:52:39.481Z,1025.56
2023-04-19T11:54:35.568Z,1025.56
2023-04-19T11:56:35.276Z,1025.67
2023-04-19T11:58:35.564Z,1025.67
2023-04-19T12:00:38.641Z,1025.46
2023-04-19T12:02:35.771Z,1025.46
2023-04-19T12:06:35.519Z,1025.45
2023-04-19T12:08:35.778Z,1025.44
2023-04-19T12:10:35.189Z,1025.44
2023-04-19T12:12:35.611Z,1025.43
2023-04-19T12:14:35.216Z,1025.43
2023-04-19T12:16:35.795Z,1025.45
2023-04-19T12:18:35.401Z,1025.45
2023-04-19T12:20:35.707Z,1025.35
2023-04-19T12:22:35.325Z,1025.35
2023-04-19T12:24:35.807Z,1025.44
2023-04-19T12:26:35.240Z,1025.44
2023-04-19T12:28:35.772Z,1025.32
2023-04-19T12:30:35.227Z,1025.32
2023-04-19T12:32:36.259Z,1025.33
2023-04-19T12:34:35.347Z,1025.33
2023-04-19T12:36:35.687Z,1025.22
2023-04-19T12:38:35.060Z,1025.22
2023-04-19T12:40:35.956Z,1025.25
2023-04-19T12:42:35.137Z,1025.25
2023-04-19T12:44:35.583Z,1025.28
2023-04-19T12:46:35.329Z,1025.28
2023-04-19T12:48:35.651Z,1025.16
2023-04-19T12:50:35.251Z,1025.16
2023-04-19T12:52:35.889Z,1025.25
2023-04-19T12:54:35.234Z,1025.25
2023-04-19T12:56:35.431Z,1025.16
2023-04-19T12:58:36.226Z,1025.16
2023-04-19T13:00:42.057Z,1025.19
2023-04-19T13:02:36.031Z,1025.19
2023-04-19T13:04:36.862Z,1025.1
2023-04-19T13:06:35.957Z,1025.1
2023-04-19T13:08:55.305Z,1025.06
2023-04-19T13:10:36.034Z,1025.06
2023-04-19T13:12:35.599Z,1025.08
2023-04-19T13:14:34.960Z,1025.08
2023-04-19T13:16:35.806Z,1024.87
2023-04-19T13:18:35.095Z,1024.87
2023-04-19T13:20:35.500Z,1024.94
2023-04-19T13:22:35.995Z,1024.94
2023-04-19T13:24:35.531Z,1024.89
2023-04-19T13:26:35.851Z,1024.89
2023-04-19T13:28:35.266Z,1024.88
2023-04-19T13:30:35.836Z,1024.88
2023-04-19T13:32:35.399Z,1024.73
2023-04-19T13:34:35.960Z,1024.73
2023-04-19T13:36:35.172Z,1024.73
2023-04-19T13:38:35.763Z,1024.73
2023-04-19T13:40:52.781Z,1024.69
2023-04-19T13:42:35.684Z,1024.69
2023-04-19T13:44:35.222Z,1024.61
2023-04-19T13:46:35.882Z,1024.61
2023-04-19T13:48:35.242Z,1024.64
2023-04-19T13:50:35.837Z,1024.64
2023-04-19T13:52:35.084Z,1024.52
2023-04-19T13:54:35.606Z,1024.52
2023-04-19T13:56:35.069Z,1024.49
2023-04-19T13:58:35.837Z,1024.49
2023-04-19T14:00:38.844Z,1024.65
2023-04-19T14:02:36.598Z,1024.65
2023-04-19T14:04:36.508Z,1024.52
2023-04-19T14:06:35.374Z,1024.52
2023-04-19T14:08:35.733Z,1024.53
2023-04-19T14:10:35.275Z,1024.53
2023-04-19T14:12:35.635Z,1024.46
2023-04-19T14:14:35.256Z,1024.46
2023-04-19T14:16:36.176Z,1024.43
2023-04-19T14:18:35.659Z,1024.3
2023-04-19T14:20:38.150Z,1024.3
2023-04-19T14:22:35.669Z,1024.28
2023-04-19T14:24:35.278Z,1024.28
2023-04-19T14:26:38.736Z,1024.3
2023-04-19T14:28:35.353Z,1024.3
2023-04-19T14:30:35.807Z,1024.23
2023-04-19T14:32:55.380Z,1024.23
2023-04-19T14:34:35.801Z,1024.17
2023-04-19T14:36:35.450Z,1024.17
2023-04-19T14:38:35.825Z,1024.15
2023-04-19T14:40:35.453Z,1024.15
2023-04-19T14:42:35.620Z,1023.93
2023-04-19T14:44:35.271Z,1023.93
2023-04-19T14:46:35.795Z,1024.08
2023-04-19T14:48:36.084Z,1024.08
2023-04-19T14:50:35.515Z,1024.04
2023-04-19T14:52:35.898Z,1024.04
2023-04-19T14:54:35.381Z,1023.87
2023-04-19T14:56:35.594Z,1023.87
2023-04-19T14:58:35.125Z,1023.79
2023-04-19T15:00:38.345Z,1023.79
2023-04-19T15:02:36.500Z,1023.83
2023-04-19T15:04:38.246Z,1023.83
2023-04-19T15:06:36.146Z,1023.84
2023-04-19T15:08:52.447Z,1023.84
2023-04-19T15:10:38.215Z,1023.78
2023-04-19T15:12:35.275Z,1023.78
2023-04-19T15:14:35.465Z,1023.86
2023-04-19T15:16:37.481Z,1023.86
2023-04-19T15:18:35.756Z,1023.57
2023-04-19T15:20:35.258Z,1023.57
2023-04-19T15:22:35.787Z,1023.74
2023-04-19T15:24:35.387Z,1023.74
2023-04-19T15:26:35.736Z,1023.57
2023-04-19T15:28:35.287Z,1023.57
2023-04-19T15:30:35.766Z,1023.74
2023-04-19T15:32:35.328Z,1023.74
2023-04-19T15:34:35.675Z,1023.62
2023-04-19T15:36:35.194Z,1023.62
2023-04-19T15:38:35.435Z,1023.48
2023-04-19T15:40:35.201Z,1023.48
2023-04-19T15:42:35.971Z,1023.48
2023-04-19T15:44:35.303Z,1023.48
2023-04-19T15:46:36.247Z,1023.31
2023-04-19T15:48:35.418Z,1023.31
2023-04-19T15:50:35.845Z,1023.36
2023-04-19T15:52:35.343Z,1023.36
2023-04-19T15:54:35.925Z,1023.3
2023-04-19T15:56:35.493Z,1023.3
2023-04-19T15:58:35.834Z,1023.34
2023-04-19T16:00:35.485Z,1023.34
2023-04-19T16:02:35.954Z,1023.38
2023-04-19T16:04:36.680Z,1023.38
2023-04-19T16:06:35.230Z,1023.33
2023-04-19T16:08:35.773Z,1023.33
2023-04-19T16:10:35.194Z,1023.33
2023-04-19T16:12:35.512Z,1023.33
2023-04-19T16:14:35.870Z,1023.35
2023-04-19T16:16:35.834Z,1023.35
2023-04-19T16:18:35.870Z,1023.42
2023-04-19T16:20:35.338Z,1023.42
2023-04-19T16:22:35.720Z,1023.31
2023-04-19T16:24:35.177Z,1023.31
2023-04-19T16:26:35.934Z,1023.36
2023-04-19T16:28:35.465Z,1023.36
2023-04-19T16:30:35.124Z,1023.33
2023-04-19T16:32:36.075Z,1023.33
2023-04-19T16:34:35.213Z,1023.35
2023-04-19T16:36:35.808Z,1023.35
2023-04-19T16:38:35.230Z,1023.39
2023-04-19T16:40:35.771Z,1023.39
2023-04-19T16:42:34.986Z,1023.31
2023-04-19T16:44:35.418Z,1023.31
2023-04-19T16:46:36.336Z,1023.31
2023-04-19T16:48:35.696Z,1023.31
2023-04-19T16:50:36.041Z,1023.4
2023-04-19T16:52:35.758Z,1023.4
2023-04-19T16:54:35.360Z,1023.35
2023-04-19T16:56:35.900Z,1023.35
2023-04-19T16:58:35.367Z,1023.32
2023-04-19T17:00:40.276Z,1023.32
2023-04-19T17:02:35.699Z,1023.28
2023-04-19T17:04:37.187Z,1023.28
2023-04-19T17:06:35.906Z,1023.24
2023-04-19T17:08:35.587Z,1023.24
2023-04-19T17:10:35.922Z,1023.21
2023-04-19T17:12:35.331Z,1023.21
2023-04-19T17:14:35.749Z,1023.14
2023-04-19T17:16:35.490Z,1023.14
2023-04-19T17:18:35.827Z,1023.12
2023-04-19T17:20:35.234Z,1023.12
2023-04-19T17:22:35.670Z,1023.07
2023-04-19T17:24:35.915Z,1023.07
2023-04-19T17:26:35.349Z,1023.2
2023-04-19T17:28:35.842Z,1023.2
2023-04-19T17:30:35.724Z,1023.12
2023-04-19T17:32:35.038Z,1023.12
2023-04-19T17:34:37.015Z,1023.09
2023-04-19T17:36:35.117Z,1023.09
2023-04-19T17:38:35.982Z,1023.12
2023-04-19T17:40:35.164Z,1023.12
2023-04-19T17:42:35.734Z,1023.12
2023-04-19T17:44:35.108Z,1023.08
2023-04-19T17:46:35.655Z,1023.08
2023-04-19T17:48:35.894Z,1023.04
2023-04-19T17:50:35.897Z,1023.04
2023-04-19T17:52:35.746Z,1022.98
2023-04-19T17:54:35.133Z,1022.98
2023-04-19T17:56:35.815Z,1022.89
2023-04-19T17:58:35.245Z,1022.89
2023-04-19T18:00:38.534Z,1023.04
2023-04-19T18:02:36.605Z,1023.04
2023-04-19T18:04:36.208Z,1023
2023-04-19T18:06:35.705Z,1023
2023-04-19T18:08:35.145Z,1023.03
2023-04-19T18:10:35.859Z,1023.03
2023-04-19T18:12:35.227Z,1023.01
2023-04-19T18:14:35.679Z,1023.01
2023-04-19T18:16:35.375Z,1023.04
2023-04-19T18:18:35.680Z,1023.04
2023-04-19T18:20:36.488Z,1023.09
2023-04-19T18:22:35.698Z,1023.09
2023-04-19T18:24:35.093Z,1023.14
2023-04-19T18:26:35.698Z,1023.14
2023-04-19T18:28:35.163Z,1023.15
2023-04-19T18:30:35.830Z,1023.15
2023-04-19T18:32:35.660Z,1023.15
2023-04-19T18:34:35.849Z,1023.15
2023-04-19T18:36:35.653Z,1023.19
2023-04-19T18:38:35.349Z,1023.19
2023-04-19T18:40:35.973Z,1023.15
2023-04-19T18:42:35.419Z,1023.15
2023-04-19T18:45:11.708Z,1023.27
2023-04-19T18:46:36.037Z,1023.27
2023-04-19T18:48:38.103Z,1023.3
2023-04-19T18:50:41.852Z,1023.3
2023-04-19T18:52:35.480Z,1023.38
2023-04-19T18:54:35.951Z,1023.38
2023-04-19T18:58:35.510Z,1023.25
2023-04-19T19:00:40.565Z,1023.42
2023-04-19T19:02:36.781Z,1023.42
2023-04-19T19:05:21.097Z,1023.34
2023-04-19T19:06:36.086Z,1023.34
2023-04-19T19:14:35.380Z,1023.45
2023-04-19T19:16:49.992Z,1023.56
2023-04-19T19:18:37.645Z,1023.56
2023-04-19T19:20:35.853Z,1023.49
2023-04-19T19:22:51.344Z,1023.49
2023-04-19T19:26:35.527Z,1023.51
2023-04-19T19:28:38.782Z,1023.6
2023-04-19T19:30:36.063Z,1023.6
2023-04-19T19:32:36.346Z,1023.52
2023-04-19T19:34:53.913Z,1023.52
2023-04-19T19:36:35.329Z,1023.59
2023-04-19T19:38:35.815Z,1023.59
2023-04-19T19:40:59.385Z,1023.47
2023-04-19T19:44:35.253Z,1023.59
2023-04-19T19:46:41.910Z,1023.59
2023-04-19T19:48:40.297Z,1023.6
2023-04-19T19:54:35.858Z,1023.55
2023-04-19T19:59:16.615Z,1023.61
2023-04-19T20:02:46.366Z,1023.61
2023-04-19T20:10:35.859Z,1023.66
2023-04-19T20:14:35.834Z,1023.58
2023-04-19T20:18:35.869Z,1023.79
2023-04-19T20:22:35.571Z,1023.68
2023-04-19T20:26:35.652Z,1023.82
2023-04-19T20:30:35.772Z,1023.76
2023-04-19T20:34:35.772Z,1023.74
2023-04-19T20:38:36.149Z,1023.85
2023-04-19T20:42:35.003Z,1023.9
2023-04-19T20:46:36.207Z,1023.97
2023-04-19T20:50:36.725Z,1023.87
2023-04-19T20:54:35.519Z,1023.85
2023-04-19T20:58:35.365Z,1023.83
2023-04-19T21:02:36.378Z,1023.85
2023-04-19T21:06:35.704Z,1023.9
2023-04-19T21:10:35.880Z,1024.02
2023-04-19T21:14:35.737Z,1024
2023-04-19T21:18:35.881Z,1024.02
2023-04-19T21:22:35.942Z,1023.96
2023-04-19T21:26:34.899Z,1024.02
2023-04-19T21:30:35.057Z,1024.02
2023-04-19T21:34:35.521Z,1024.07
2023-04-19T21:38:35.369Z,1024.05
2023-04-19T21:42:35.586Z,1024.13
2023-04-19T21:46:36.149Z,1024.13
2023-04-19T21:50:35.850Z,1024.12
2023-04-19T21:54:53.403Z,1024.03
2023-04-19T21:58:35.895Z,1024.12
2023-04-19T22:02:35.670Z,1024.13
2023-04-19T22:06:35.427Z,1024.23
2023-04-19T22:10:35.628Z,1024.19
2023-04-19T22:14:35.559Z,1024.17
2023-04-19T22:18:35.808Z,1024.22
2023-04-19T22:22:36.076Z,1024.07
2023-04-19T22:26:35.835Z,1024.09
2023-04-19T22:30:35.850Z,1024.04
2023-04-19T22:34:35.074Z,1024.01
2023-04-19T22:38:35.054Z,1024.05
2023-04-19T22:42:35.391Z,1023.97
2023-04-19T22:46:35.722Z,1024.02
2023-04-19T22:50:35.638Z,1023.89
2023-04-19T22:54:35.674Z,1023.96
2023-04-19T22:58:35.828Z,1023.84
2023-04-19T23:02:35.626Z,1023.82
2023-04-19T23:06:37.623Z,1023.84
2023-04-19T23:10:36.134Z,1023.8
2023-04-19T23:14:35.904Z,1023.74
2023-04-19T23:18:35.522Z,1023.75
2023-04-19T23:22:35.191Z,1023.74
2023-04-19T23:26:35.170Z,1023.69
2023-04-19T23:30:35.455Z,1023.76
2023-04-19T23:34:35.701Z,1023.72
2023-04-19T23:38:35.627Z,1023.66
2023-04-19T23:42:35.693Z,1023.65
2023-04-19T23:46:36.087Z,1023.64
2023-04-19T23:50:35.126Z,1023.61
2023-04-19T23:54:35.205Z,1023.75
2023-04-19T23:58:35.367Z,1023.59
